sensor_id;sensor_type;location;lat;lon;timestamp;pressure;altitude;pressure_sealevel;temperature;humidity
31082;BME280;17737;52.586;13.284;2023-02-15T00:00:14;102753.75;;;2.95;85.68
31082;BME280;17737;52.586;13.284;2023-02-15T00:02:42;102756.63;;;2.91;86.06
31082;BME280;17737;52.586;13.284;2023-02-15T00:05:10;102752.22;;;2.90;85.90
31082;BME280;17737;52.586;13.284;2023-02-15T00:07:38;102754.22;;;2.85;86.05
31082;BME280;17737;52.586;13.284;2023-02-15T00:10:08;102753.00;;;2.92;86.05
31082;BME280;17737;52.586;13.284;2023-02-15T00:12:38;102754.03;;;2.89;86.06
31082;BME280;17737;52.586;13.284;2023-02-15T00:15:07;102748.78;;;3.06;85.66
31082;BME280;17737;52.586;13.284;2023-02-15T00:17:38;102744.94;;;2.93;85.84
31082;BME280;17737;52.586;13.284;2023-02-15T00:20:07;102733.56;;;2.90;86.15
31082;BME280;17737;52.586;13.284;2023-02-15T00:22:36;102732.59;;;2.92;85.57
31082;BME280;17737;52.586;13.284;2023-02-15T00:25:05;102725.81;;;3.04;85.37
31082;BME280;17737;52.586;13.284;2023-02-15T00:27:34;102724.75;;;2.89;85.90
31082;BME280;17737;52.586;13.284;2023-02-15T00:30:02;102724.22;;;2.81;86.31
31082;BME280;17737;52.586;13.284;2023-02-15T00:32:32;102724.44;;;2.77;86.53
31082;BME280;17737;52.586;13.284;2023-02-15T00:35:00;102731.28;;;2.82;86.29
31082;BME280;17737;52.586;13.284;2023-02-15T00:37:28;102735.00;;;2.78;86.35
31082;BME280;17737;52.586;13.284;2023-02-15T00:39:56;102733.56;;;2.71;86.11
31082;BME280;17737;52.586;13.284;2023-02-15T00:42:24;102741.91;;;2.64;86.20
31082;BME280;17737;52.586;13.284;2023-02-15T00:44:54;102735.22;;;2.55;87.13
31082;BME280;17737;52.586;13.284;2023-02-15T00:47:22;102738.28;;;2.46;87.24
31082;BME280;17737;52.586;13.284;2023-02-15T00:49:51;102743.75;;;2.43;87.28
31082;BME280;17737;52.586;13.284;2023-02-15T00:52:19;102738.59;;;2.38;87.55
31082;BME280;17737;52.586;13.284;2023-02-15T00:54:47;102734.44;;;2.33;87.82
31082;BME280;17737;52.586;13.284;2023-02-15T00:57:15;102730.84;;;2.34;87.85
31082;BME280;17737;52.586;13.284;2023-02-15T00:59:44;102732.66;;;2.52;87.21
31082;BME280;17737;52.586;13.284;2023-02-15T01:02:14;102722.41;;;2.63;87.10
31082;BME280;17737;52.586;13.284;2023-02-15T01:04:42;102719.34;;;2.72;86.39
31082;BME280;17737;52.586;13.284;2023-02-15T01:07:10;102718.03;;;2.62;86.34
31082;BME280;17737;52.586;13.284;2023-02-15T01:09:39;102711.91;;;2.60;86.68
31082;BME280;17737;52.586;13.284;2023-02-15T01:12:07;102712.97;;;2.56;86.70
31082;BME280;17737;52.586;13.284;2023-02-15T01:14:35;102715.38;;;2.62;86.35
31082;BME280;17737;52.586;13.284;2023-02-15T01:17:03;102706.75;;;2.57;86.27
31082;BME280;17737;52.586;13.284;2023-02-15T01:19:32;102710.31;;;2.56;85.75
31082;BME280;17737;52.586;13.284;2023-02-15T01:22:00;102698.75;;;2.57;85.84
31082;BME280;17737;52.586;13.284;2023-02-15T01:24:28;102710.59;;;2.50;86.01
31082;BME280;17737;52.586;13.284;2023-02-15T01:26:56;102698.59;;;2.41;86.52
31082;BME280;17737;52.586;13.284;2023-02-15T01:29:27;102701.19;;;2.43;86.13
31082;BME280;17737;52.586;13.284;2023-02-15T01:31:55;102699.66;;;2.37;86.50
31082;BME280;17737;52.586;13.284;2023-02-15T01:34:23;102691.16;;;2.29;86.56
31082;BME280;17737;52.586;13.284;2023-02-15T01:36:52;102691.56;;;2.20;86.48
31082;BME280;17737;52.586;13.284;2023-02-15T01:39:20;102691.75;;;2.16;87.04
31082;BME280;17737;52.586;13.284;2023-02-15T01:41:48;102690.88;;;2.15;87.25
31082;BME280;17737;52.586;13.284;2023-02-15T01:47:29;102671.34;;;2.16;86.75
31082;BME280;17737;52.586;13.284;2023-02-15T01:50:09;102658.13;;;2.15;86.09
31082;BME280;17737;52.586;13.284;2023-02-15T01:52:46;102657.53;;;2.08;86.19
31082;BME280;17737;52.586;13.284;2023-02-15T01:55:18;102652.88;;;2.13;86.64
31082;BME280;17737;52.586;13.284;2023-02-15T01:57:49;102656.09;;;2.20;86.15
31082;BME280;17737;52.586;13.284;2023-02-15T02:00:18;102652.78;;;2.15;86.43
31082;BME280;17737;52.586;13.284;2023-02-15T02:02:51;102638.78;;;2.11;86.26
31082;BME280;17737;52.586;13.284;2023-02-15T02:05:23;102643.66;;;2.02;86.62
31082;BME280;17737;52.586;13.284;2023-02-15T02:07:57;102640.59;;;2.11;86.40
31082;BME280;17737;52.586;13.284;2023-02-15T02:10:28;102642.59;;;2.06;86.40
31082;BME280;17737;52.586;13.284;2023-02-15T02:12:59;102642.84;;;2.00;86.86
31082;BME280;17737;52.586;13.284;2023-02-15T02:15:41;102632.94;;;2.03;86.48
31082;BME280;17737;52.586;13.284;2023-02-15T02:18:25;102631.34;;;1.99;86.92
31082;BME280;17737;52.586;13.284;2023-02-15T02:24:41;102635.34;;;1.89;86.65
31082;BME280;17737;52.586;13.284;2023-02-15T02:27:34;102628.69;;;1.79;87.18
31082;BME280;17737;52.586;13.284;2023-02-15T02:30:33;102624.13;;;1.83;87.54
31082;BME280;17737;52.586;13.284;2023-02-15T02:33:28;102629.94;;;1.91;86.98
31082;BME280;17737;52.586;13.284;2023-02-15T02:36:15;102626.78;;;1.83;87.45
31082;BME280;17737;52.586;13.284;2023-02-15T02:39:05;102627.72;;;1.82;87.23
31082;BME280;17737;52.586;13.284;2023-02-15T02:41:45;102620.53;;;1.84;87.31
31082;BME280;17737;52.586;13.284;2023-02-15T02:44:26;102619.88;;;1.79;86.89
31082;BME280;17737;52.586;13.284;2023-02-15T02:47:02;102609.91;;;1.84;87.39
31082;BME280;17737;52.586;13.284;2023-02-15T02:49:40;102609.97;;;1.82;87.05
31082;BME280;17737;52.586;13.284;2023-02-15T02:52:35;102606.31;;;1.85;86.88
31082;BME280;17737;52.586;13.284;2023-02-15T02:55:11;102611.78;;;1.82;86.94
31082;BME280;17737;52.586;13.284;2023-02-15T02:57:52;102601.94;;;1.84;87.17
31082;BME280;17737;52.586;13.284;2023-02-15T03:00:25;102599.47;;;1.79;87.08
31082;BME280;17737;52.586;13.284;2023-02-15T03:03:02;102606.84;;;1.73;87.28
31082;BME280;17737;52.586;13.284;2023-02-15T03:05:39;102598.34;;;1.85;87.31
31082;BME280;17737;52.586;13.284;2023-02-15T03:08:12;102595.63;;;1.66;87.32
31082;BME280;17737;52.586;13.284;2023-02-15T03:10:51;102599.28;;;1.84;87.15
31082;BME280;17737;52.586;13.284;2023-02-15T03:13:22;102594.75;;;1.66;87.20
31082;BME280;17737;52.586;13.284;2023-02-15T03:15:51;102594.50;;;1.72;87.67
31082;BME280;17737;52.586;13.284;2023-02-15T03:18:42;102589.97;;;1.74;87.40
31082;BME280;17737;52.586;13.284;2023-02-15T03:21:21;102585.72;;;1.70;87.55
31082;BME280;17737;52.586;13.284;2023-02-15T03:23:59;102580.56;;;1.67;87.70
31082;BME280;17737;52.586;13.284;2023-02-15T03:26:32;102583.41;;;1.62;88.08
31082;BME280;17737;52.586;13.284;2023-02-15T03:29:05;102576.84;;;1.51;88.29
31082;BME280;17737;52.586;13.284;2023-02-15T03:31:38;102571.00;;;1.43;88.92
31082;BME280;17737;52.586;13.284;2023-02-15T03:34:11;102571.13;;;1.40;89.26
31082;BME280;17737;52.586;13.284;2023-02-15T03:36:47;102579.13;;;1.38;89.03
31082;BME280;17737;52.586;13.284;2023-02-15T03:39:22;102565.84;;;1.38;88.85
31082;BME280;17737;52.586;13.284;2023-02-15T03:42:01;102570.13;;;1.42;89.10
31082;BME280;17737;52.586;13.284;2023-02-15T03:44:39;102571.13;;;1.40;88.76
31082;BME280;17737;52.586;13.284;2023-02-15T03:47:17;102571.38;;;1.34;89.13
31082;BME280;17737;52.586;13.284;2023-02-15T03:49:51;102565.47;;;1.27;89.51
31082;BME280;17737;52.586;13.284;2023-02-15T03:52:27;102567.00;;;1.33;89.21
31082;BME280;17737;52.586;13.284;2023-02-15T03:54:59;102570.19;;;1.20;89.52
31082;BME280;17737;52.586;13.284;2023-02-15T03:57:28;102563.72;;;1.26;89.48
31082;BME280;17737;52.586;13.284;2023-02-15T04:00:15;102558.25;;;1.31;89.16
31082;BME280;17737;52.586;13.284;2023-02-15T04:03:11;102552.41;;;1.23;89.55
31082;BME280;17737;52.586;13.284;2023-02-15T04:05:49;102555.75;;;1.26;89.08
31082;BME280;17737;52.586;13.284;2023-02-15T04:08:19;102557.50;;;1.27;89.00
31082;BME280;17737;52.586;13.284;2023-02-15T04:10:47;102549.88;;;1.40;88.50
31082;BME280;17737;52.586;13.284;2023-02-15T04:13:20;102543.88;;;1.35;88.05
31082;BME280;17737;52.586;13.284;2023-02-15T04:15:50;102547.53;;;1.12;88.92
31082;BME280;17737;52.586;13.284;2023-02-15T04:18:32;102545.06;;;1.07;89.29
31082;BME280;17737;52.586;13.284;2023-02-15T04:21:20;102544.28;;;1.05;89.31
31082;BME280;17737;52.586;13.284;2023-02-15T04:24:09;102544.22;;;1.07;89.11
31082;BME280;17737;52.586;13.284;2023-02-15T04:26:55;102534.78;;;1.00;89.19
31082;BME280;17737;52.586;13.284;2023-02-15T04:29:33;102538.97;;;1.05;89.33
31082;BME280;17737;52.586;13.284;2023-02-15T04:32:18;102542.81;;;0.98;89.69
31082;BME280;17737;52.586;13.284;2023-02-15T04:34:46;102537.50;;;0.98;89.27
31082;BME280;17737;52.586;13.284;2023-02-15T04:37:14;102539.88;;;1.04;89.45
31082;BME280;17737;52.586;13.284;2023-02-15T04:39:44;102524.59;;;0.89;89.15
31082;BME280;17737;52.586;13.284;2023-02-15T04:42:12;102529.09;;;0.87;89.68
31082;BME280;17737;52.586;13.284;2023-02-15T04:44:40;102520.34;;;0.85;89.88
31082;BME280;17737;52.586;13.284;2023-02-15T04:47:08;102512.31;;;0.87;89.32
31082;BME280;17737;52.586;13.284;2023-02-15T04:49:36;102510.00;;;0.79;89.66
31082;BME280;17737;52.586;13.284;2023-02-15T04:52:04;102500.50;;;0.74;89.75
31082;BME280;17737;52.586;13.284;2023-02-15T04:54:32;102502.47;;;0.69;89.63
31082;BME280;17737;52.586;13.284;2023-02-15T04:57:04;102503.47;;;0.66;89.98
31082;BME280;17737;52.586;13.284;2023-02-15T04:59:32;102497.91;;;0.72;89.89
31082;BME280;17737;52.586;13.284;2023-02-15T05:02:00;102493.72;;;0.67;89.66
31082;BME280;17737;52.586;13.284;2023-02-15T05:04:29;102486.69;;;0.66;89.99
31082;BME280;17737;52.586;13.284;2023-02-15T05:06:57;102492.13;;;0.63;90.18
31082;BME280;17737;52.586;13.284;2023-02-15T05:09:25;102483.31;;;0.62;89.89
31082;BME280;17737;52.586;13.284;2023-02-15T05:11:53;102484.72;;;0.71;89.44
31082;BME280;17737;52.586;13.284;2023-02-15T05:14:22;102485.88;;;0.64;89.62
31082;BME280;17737;52.586;13.284;2023-02-15T05:16:50;102488.84;;;0.56;89.76
31082;BME280;17737;52.586;13.284;2023-02-15T05:19:20;102481.09;;;0.52;89.82
31082;BME280;17737;52.586;13.284;2023-02-15T05:21:49;102480.66;;;0.62;89.75
31082;BME280;17737;52.586;13.284;2023-02-15T05:24:17;102486.53;;;0.49;89.79
31082;BME280;17737;52.586;13.284;2023-02-15T05:27:03;102492.06;;;0.64;89.48
31082;BME280;17737;52.586;13.284;2023-02-15T05:29:50;102486.09;;;0.59;89.53
31082;BME280;17737;52.586;13.284;2023-02-15T05:32:18;102481.16;;;0.50;89.51
31082;BME280;17737;52.586;13.284;2023-02-15T05:34:46;102475.16;;;0.45;89.82
31082;BME280;17737;52.586;13.284;2023-02-15T05:37:14;102475.09;;;0.47;89.51
31082;BME280;17737;52.586;13.284;2023-02-15T05:39:42;102467.09;;;0.48;89.69
31082;BME280;17737;52.586;13.284;2023-02-15T05:42:10;102469.66;;;0.50;89.49
31082;BME280;17737;52.586;13.284;2023-02-15T05:44:38;102470.69;;;0.47;89.81
31082;BME280;17737;52.586;13.284;2023-02-15T05:47:07;102459.06;;;0.50;89.57
31082;BME280;17737;52.586;13.284;2023-02-15T05:49:35;102460.75;;;0.52;89.74
31082;BME280;17737;52.586;13.284;2023-02-15T05:52:03;102457.22;;;0.52;89.10
31082;BME280;17737;52.586;13.284;2023-02-15T05:54:32;102462.16;;;0.39;89.46
31082;BME280;17737;52.586;13.284;2023-02-15T05:57:00;102460.19;;;0.44;89.44
31082;BME280;17737;52.586;13.284;2023-02-15T05:59:28;102461.91;;;0.45;89.88
31082;BME280;17737;52.586;13.284;2023-02-15T06:01:56;102461.03;;;0.45;89.68
31082;BME280;17737;52.586;13.284;2023-02-15T06:04:25;102462.03;;;0.42;89.94
31082;BME280;17737;52.586;13.284;2023-02-15T06:06:53;102459.41;;;0.42;89.60
31082;BME280;17737;52.586;13.284;2023-02-15T06:09:21;102455.44;;;0.52;89.45
31082;BME280;17737;52.586;13.284;2023-02-15T06:11:49;102453.38;;;0.59;89.36
31082;BME280;17737;52.586;13.284;2023-02-15T06:14:17;102455.78;;;0.65;89.14
31082;BME280;17737;52.586;13.284;2023-02-15T06:16:45;102465.53;;;0.64;89.60
31082;BME280;17737;52.586;13.284;2023-02-15T06:19:14;102461.28;;;0.60;89.40
31082;BME280;17737;52.586;13.284;2023-02-15T06:21:43;102464.94;;;0.58;89.39
31082;BME280;17737;52.586;13.284;2023-02-15T06:24:11;102461.56;;;0.54;89.54
31082;BME280;17737;52.586;13.284;2023-02-15T06:26:40;102464.53;;;0.67;89.39
31082;BME280;17737;52.586;13.284;2023-02-15T06:29:08;102457.91;;;0.77;89.01
31082;BME280;17737;52.586;13.284;2023-02-15T06:31:36;102454.66;;;0.70;89.08
31082;BME280;17737;52.586;13.284;2023-02-15T06:34:04;102457.28;;;0.50;89.40
31082;BME280;17737;52.586;13.284;2023-02-15T06:36:32;102457.09;;;0.55;90.17
31082;BME280;17737;52.586;13.284;2023-02-15T06:39:02;102460.06;;;0.47;90.19
31082;BME280;17737;52.586;13.284;2023-02-15T06:41:30;102452.59;;;0.57;89.99
31082;BME280;17737;52.586;13.284;2023-02-15T06:43:58;102444.84;;;0.52;90.03
31082;BME280;17737;52.586;13.284;2023-02-15T06:46:26;102453.38;;;0.59;89.75
31082;BME280;17737;52.586;13.284;2023-02-15T06:48:55;102453.97;;;0.45;89.85
31082;BME280;17737;52.586;13.284;2023-02-15T06:51:23;102455.34;;;0.95;91.01
31082;BME280;17737;52.586;13.284;2023-02-15T06:53:51;102449.31;;;1.12;90.64
31082;BME280;17737;52.586;13.284;2023-02-15T06:56:21;102456.19;;;1.16;90.20
31082;BME280;17737;52.586;13.284;2023-02-15T06:58:49;102458.47;;;1.05;89.64
31082;BME280;17737;52.586;13.284;2023-02-15T07:01:19;102453.50;;;0.97;89.66
31082;BME280;17737;52.586;13.284;2023-02-15T07:03:47;102454.03;;;1.05;89.18
31082;BME280;17737;52.586;13.284;2023-02-15T07:06:15;102452.63;;;1.17;89.33
31082;BME280;17737;52.586;13.284;2023-02-15T07:08:43;102452.63;;;1.37;89.23
31082;BME280;17737;52.586;13.284;2023-02-15T07:11:11;102439.47;;;1.34;88.70
31082;BME280;17737;52.586;13.284;2023-02-15T07:13:58;102442.28;;;1.31;88.60
31082;BME280;17737;52.586;13.284;2023-02-15T07:16:26;102443.91;;;1.34;88.63
31082;BME280;17737;52.586;13.284;2023-02-15T07:18:54;102441.47;;;1.29;88.70
31082;BME280;17737;52.586;13.284;2023-02-15T07:21:22;102435.00;;;1.35;89.00
31082;BME280;17737;52.586;13.284;2023-02-15T07:23:50;102425.13;;;1.38;88.58
31082;BME280;17737;52.586;13.284;2023-02-15T07:26:19;102425.00;;;1.41;88.88
31082;BME280;17737;52.586;13.284;2023-02-15T07:28:47;102426.22;;;1.34;88.68
31082;BME280;17737;52.586;13.284;2023-02-15T07:31:17;102418.28;;;1.71;88.71
31082;BME280;17737;52.586;13.284;2023-02-15T07:33:45;102421.47;;;2.15;87.22
31082;BME280;17737;52.586;13.284;2023-02-15T07:36:12;102418.97;;;2.12;87.20
31082;BME280;17737;52.586;13.284;2023-02-15T07:38:41;102414.81;;;1.88;86.82
31082;BME280;17737;52.586;13.284;2023-02-15T07:41:10;102420.84;;;1.73;87.43
31082;BME280;17737;52.586;13.284;2023-02-15T07:43:41;102413.94;;;1.87;87.65
31082;BME280;17737;52.586;13.284;2023-02-15T07:46:13;102407.00;;;1.85;87.27
31082;BME280;17737;52.586;13.284;2023-02-15T07:48:45;102408.50;;;1.90;87.40
31082;BME280;17737;52.586;13.284;2023-02-15T07:51:13;102403.59;;;2.00;87.46
31082;BME280;17737;52.586;13.284;2023-02-15T07:53:42;102400.06;;;2.35;86.43
31082;BME280;17737;52.586;13.284;2023-02-15T07:56:12;102404.28;;;2.22;85.79
31082;BME280;17737;52.586;13.284;2023-02-15T07:58:41;102401.25;;;2.29;86.21
31082;BME280;17737;52.586;13.284;2023-02-15T08:01:25;102396.81;;;2.47;85.58
31082;BME280;17737;52.586;13.284;2023-02-15T08:03:56;102394.16;;;2.47;86.04
31082;BME280;17737;52.586;13.284;2023-02-15T08:06:26;102397.84;;;2.44;85.11
31082;BME280;17737;52.586;13.284;2023-02-15T08:08:55;102399.84;;;2.22;85.48
31082;BME280;17737;52.586;13.284;2023-02-15T08:11:25;102399.69;;;2.25;85.80
31082;BME280;17737;52.586;13.284;2023-02-15T08:14:01;102396.63;;;2.16;86.10
31082;BME280;17737;52.586;13.284;2023-02-15T08:16:33;102392.19;;;2.51;85.21
31082;BME280;17737;52.586;13.284;2023-02-15T08:19:06;102392.09;;;2.35;85.22
31082;BME280;17737;52.586;13.284;2023-02-15T08:21:37;102396.09;;;2.08;85.67
31082;BME280;17737;52.586;13.284;2023-02-15T08:24:08;102394.19;;;1.93;86.13
31082;BME280;17737;52.586;13.284;2023-02-15T08:26:38;102393.00;;;2.17;86.26
31082;BME280;17737;52.586;13.284;2023-02-15T08:29:09;102395.34;;;2.06;86.46
31082;BME280;17737;52.586;13.284;2023-02-15T08:31:39;102399.16;;;2.00;86.35
31082;BME280;17737;52.586;13.284;2023-02-15T08:34:09;102388.31;;;2.22;86.25
31082;BME280;17737;52.586;13.284;2023-02-15T08:36:38;102385.78;;;2.37;85.75
31082;BME280;17737;52.586;13.284;2023-02-15T08:39:06;102387.81;;;2.32;85.83
31082;BME280;17737;52.586;13.284;2023-02-15T08:41:37;102388.78;;;2.49;85.67
31082;BME280;17737;52.586;13.284;2023-02-15T08:44:08;102378.06;;;2.50;85.20
31082;BME280;17737;52.586;13.284;2023-02-15T08:46:39;102378.88;;;2.51;85.42
31082;BME280;17737;52.586;13.284;2023-02-15T08:49:12;102374.28;;;2.54;85.17
31082;BME280;17737;52.586;13.284;2023-02-15T08:51:42;102369.59;;;2.76;84.92
31082;BME280;17737;52.586;13.284;2023-02-15T08:54:13;102372.41;;;2.73;84.29
31082;BME280;17737;52.586;13.284;2023-02-15T08:56:43;102376.56;;;2.62;84.79
31082;BME280;17737;52.586;13.284;2023-02-15T08:59:13;102362.16;;;2.66;84.87
31082;BME280;17737;52.586;13.284;2023-02-15T09:01:44;102362.38;;;2.78;84.28
31082;BME280;17737;52.586;13.284;2023-02-15T09:04:14;102358.22;;;2.73;84.03
31082;BME280;17737;52.586;13.284;2023-02-15T09:06:44;102355.72;;;2.87;84.25
31082;BME280;17737;52.586;13.284;2023-02-15T09:09:15;102354.22;;;2.98;83.96
31082;BME280;17737;52.586;13.284;2023-02-15T09:11:45;102351.81;;;2.94;83.70
31082;BME280;17737;52.586;13.284;2023-02-15T09:14:16;102353.19;;;3.01;83.66
31082;BME280;17737;52.586;13.284;2023-02-15T09:16:47;102350.13;;;3.08;83.25
31082;BME280;17737;52.586;13.284;2023-02-15T09:19:20;102358.75;;;3.29;83.38
31082;BME280;17737;52.586;13.284;2023-02-15T09:21:49;102352.41;;;3.31;82.44
31082;BME280;17737;52.586;13.284;2023-02-15T09:24:18;102355.94;;;3.47;81.68
31082;BME280;17737;52.586;13.284;2023-02-15T09:26:47;102358.63;;;3.47;81.82
31082;BME280;17737;52.586;13.284;2023-02-15T09:29:15;102359.59;;;3.14;82.52
31082;BME280;17737;52.586;13.284;2023-02-15T09:31:46;102363.69;;;3.36;82.71
31082;BME280;17737;52.586;13.284;2023-02-15T09:34:20;102355.63;;;3.53;82.08
31082;BME280;17737;52.586;13.284;2023-02-15T09:36:50;102348.66;;;3.51;81.65
31082;BME280;17737;52.586;13.284;2023-02-15T09:39:20;102350.41;;;3.67;81.31
31082;BME280;17737;52.586;13.284;2023-02-15T09:42:20;102343.16;;;3.85;80.58
31082;BME280;17737;52.586;13.284;2023-02-15T09:45:20;102351.25;;;3.99;80.73
31082;BME280;17737;52.586;13.284;2023-02-15T09:51:52;102350.72;;;4.24;79.27
31082;BME280;17737;52.586;13.284;2023-02-15T09:54:47;102347.25;;;4.22;78.76
31082;BME280;17737;52.586;13.284;2023-02-15T09:57:29;102351.22;;;4.15;79.38
31082;BME280;17737;52.586;13.284;2023-02-15T10:00:10;102354.66;;;4.32;79.15
31082;BME280;17737;52.586;13.284;2023-02-15T10:03:04;102350.22;;;4.47;78.63
31082;BME280;17737;52.586;13.284;2023-02-15T10:05:57;102351.22;;;4.74;78.00
31082;BME280;17737;52.586;13.284;2023-02-15T10:08:51;102349.09;;;4.65;77.18
31082;BME280;17737;52.586;13.284;2023-02-15T10:11:48;102343.78;;;4.35;77.76
31082;BME280;17737;52.586;13.284;2023-02-15T10:14:51;102338.91;;;4.12;78.48
31082;BME280;17737;52.586;13.284;2023-02-15T10:17:48;102340.16;;;4.36;78.73
31082;BME280;17737;52.586;13.284;2023-02-15T10:20:29;102326.13;;;4.62;77.56
31082;BME280;17737;52.586;13.284;2023-02-15T10:23:29;102319.97;;;5.04;76.73
31082;BME280;17737;52.586;13.284;2023-02-15T10:26:16;102324.25;;;4.64;77.27
31082;BME280;17737;52.586;13.284;2023-02-15T10:28:50;102317.50;;;4.73;77.51
31082;BME280;17737;52.586;13.284;2023-02-15T10:31:24;102314.91;;;4.71;77.27
31082;BME280;17737;52.586;13.284;2023-02-15T10:34:10;102310.50;;;4.70;77.49
31082;BME280;17737;52.586;13.284;2023-02-15T10:40:32;102301.25;;;4.62;77.47
31082;BME280;17737;52.586;13.284;2023-02-15T10:43:19;102294.81;;;4.80;77.14
31082;BME280;17737;52.586;13.284;2023-02-15T10:46:02;102301.09;;;4.93;77.10
31082;BME280;17737;52.586;13.284;2023-02-15T10:52:01;102289.09;;;5.00;76.38
31082;BME280;17737;52.586;13.284;2023-02-15T10:54:46;102279.44;;;5.12;76.74
31082;BME280;17737;52.586;13.284;2023-02-15T10:57:26;102279.53;;;5.24;76.10
31082;BME280;17737;52.586;13.284;2023-02-15T11:00:09;102283.16;;;5.09;76.10
31082;BME280;17737;52.586;13.284;2023-02-15T11:02:54;102282.22;;;5.10;76.30
31082;BME280;17737;52.586;13.284;2023-02-15T11:05:42;102287.56;;;5.10;76.42
31082;BME280;17737;52.586;13.284;2023-02-15T11:08:23;102280.22;;;5.14;75.92
31082;BME280;17737;52.586;13.284;2023-02-15T11:10:56;102276.16;;;5.35;75.67
31082;BME280;17737;52.586;13.284;2023-02-15T11:13:34;102272.25;;;5.40;75.36
31082;BME280;17737;52.586;13.284;2023-02-15T11:16:12;102270.78;;;5.49;74.88
31082;BME280;17737;52.586;13.284;2023-02-15T11:18:50;102263.78;;;5.60;74.17
31082;BME280;17737;52.586;13.284;2023-02-15T11:21:24;102266.56;;;5.59;74.65
31082;BME280;17737;52.586;13.284;2023-02-15T11:23:55;102258.66;;;5.57;74.42
31082;BME280;17737;52.586;13.284;2023-02-15T11:26:28;102256.59;;;5.75;73.89
31082;BME280;17737;52.586;13.284;2023-02-15T11:29:07;102253.06;;;5.74;73.70
31082;BME280;17737;52.586;13.284;2023-02-15T11:31:44;102257.59;;;6.00;73.49
31082;BME280;17737;52.586;13.284;2023-02-15T11:34:20;102259.06;;;5.92;73.75
31082;BME280;17737;52.586;13.284;2023-02-15T11:36:55;102256.81;;;5.98;73.43
31082;BME280;17737;52.586;13.284;2023-02-15T11:39:30;102259.56;;;6.24;72.41
31082;BME280;17737;52.586;13.284;2023-02-15T11:42:04;102255.22;;;6.48;72.10
31082;BME280;17737;52.586;13.284;2023-02-15T11:44:44;102248.00;;;6.36;72.04
31082;BME280;17737;52.586;13.284;2023-02-15T11:47:27;102246.94;;;6.26;72.53
31082;BME280;17737;52.586;13.284;2023-02-15T11:49:56;102243.78;;;6.06;73.29
31082;BME280;17737;52.586;13.284;2023-02-15T11:52:25;102237.50;;;6.07;73.08
31082;BME280;17737;52.586;13.284;2023-02-15T11:54:53;102232.78;;;6.11;72.72
31082;BME280;17737;52.586;13.284;2023-02-15T11:57:26;102236.44;;;6.23;72.80
31082;BME280;17737;52.586;13.284;2023-02-15T12:00:02;102228.91;;;6.15;72.62
31082;BME280;17737;52.586;13.284;2023-02-15T12:02:45;102223.56;;;6.02;72.93
31082;BME280;17737;52.586;13.284;2023-02-15T12:05:23;102221.88;;;6.14;72.77
31082;BME280;17737;52.586;13.284;2023-02-15T12:07:55;102217.06;;;6.19;73.07
31082;BME280;17737;52.586;13.284;2023-02-15T12:10:30;102222.81;;;6.13;73.09
31082;BME280;17737;52.586;13.284;2023-02-15T12:13:11;102218.44;;;6.12;72.86
31082;BME280;17737;52.586;13.284;2023-02-15T12:15:44;102218.88;;;6.06;73.40
31082;BME280;17737;52.586;13.284;2023-02-15T12:18:25;102216.88;;;6.35;72.40
31082;BME280;17737;52.586;13.284;2023-02-15T12:21:05;102218.25;;;6.53;72.60
31082;BME280;17737;52.586;13.284;2023-02-15T12:23:42;102213.88;;;6.52;72.14
31082;BME280;17737;52.586;13.284;2023-02-15T12:26:23;102213.56;;;6.69;71.52
31082;BME280;17737;52.586;13.284;2023-02-15T12:28:53;102205.19;;;6.73;71.46
31082;BME280;17737;52.586;13.284;2023-02-15T12:31:26;102202.19;;;6.78;71.04
31082;BME280;17737;52.586;13.284;2023-02-15T12:34:02;102188.88;;;6.89;70.99
31082;BME280;17737;52.586;13.284;2023-02-15T12:36:42;102190.38;;;6.93;70.47
31082;BME280;17737;52.586;13.284;2023-02-15T12:39:19;102190.28;;;6.94;70.42
31082;BME280;17737;52.586;13.284;2023-02-15T12:42:15;102193.25;;;7.02;70.39
31082;BME280;17737;52.586;13.284;2023-02-15T12:44:58;102182.13;;;7.32;69.86
31082;BME280;17737;52.586;13.284;2023-02-15T12:47:28;102181.91;;;7.59;68.46
31082;BME280;17737;52.586;13.284;2023-02-15T12:50:08;102173.06;;;7.46;68.57
31082;BME280;17737;52.586;13.284;2023-02-15T12:52:47;102179.28;;;7.46;68.89
31082;BME280;17737;52.586;13.284;2023-02-15T12:55:22;102170.16;;;7.49;68.93
31082;BME280;17737;52.586;13.284;2023-02-15T12:58:15;102167.34;;;7.50;68.77
31082;BME280;17737;52.586;13.284;2023-02-15T13:00:45;102165.97;;;7.68;67.44
31082;BME280;17737;52.586;13.284;2023-02-15T13:03:17;102164.25;;;7.91;66.89
31082;BME280;17737;52.586;13.284;2023-02-15T13:05:50;102160.78;;;7.78;67.41
31082;BME280;17737;52.586;13.284;2023-02-15T13:08:22;102158.72;;;7.81;67.35
31082;BME280;17737;52.586;13.284;2023-02-15T13:10:57;102151.69;;;8.02;66.42
31082;BME280;17737;52.586;13.284;2023-02-15T13:13:29;102137.53;;;8.00;66.41
31082;BME280;17737;52.586;13.284;2023-02-15T13:16:02;102137.53;;;8.00;66.75
31082;BME280;17737;52.586;13.284;2023-02-15T13:18:36;102138.56;;;8.21;65.97
31082;BME280;17737;52.586;13.284;2023-02-15T13:21:11;102129.47;;;8.24;65.95
31082;BME280;17737;52.586;13.284;2023-02-15T13:23:44;102130.34;;;8.01;65.94
31082;BME280;17737;52.586;13.284;2023-02-15T13:26:18;102126.94;;;7.99;66.55
31082;BME280;17737;52.586;13.284;2023-02-15T13:28:51;102136.22;;;8.06;66.36
31082;BME280;17737;52.586;13.284;2023-02-15T13:31:26;102133.56;;;8.17;65.96
31082;BME280;17737;52.586;13.284;2023-02-15T13:34:02;102125.03;;;8.12;66.42
31082;BME280;17737;52.586;13.284;2023-02-15T13:36:43;102129.66;;;8.21;66.23
31082;BME280;17737;52.586;13.284;2023-02-15T13:39:23;102129.91;;;8.07;65.88
31082;BME280;17737;52.586;13.284;2023-02-15T13:42:00;102125.69;;;8.26;65.45